Exeter, ME (04435)

5:57 AM EDT on August 23, 2014 (GMT -0400)
KMEGARLA2 | Change Station
CLOSE
Current Station
Personal Weather Station
Location: Garland, ME
Elevation: 410 ft
Nearby Weather Stations

Elev 410 ft 45.02 °N, 69.13 °W | Updated 4 seconds ago

Overcast
Overcast
60.6 °F
Feels Like 60.6 °F
N
0.0
Wind Variable Wind from ENE
Gusts 4.0 mph

Today
High -- | Low -- °F
--% Chance of Precip.
Yesterday
High -- | Low -- °F
Precip. -- in
5:47 AM 7:29 PM
Waning Crescent, 4% visible
Pressure 30.14 in
Visibility 10.0 miles
Clouds Overcast 6000 ft
Dew Point 58 °F
Humidity 91%
Rainfall 0.00 in
Snow Depth Not available.
UV 0 out of 12
Pollen 6.90 out of 12
Ozone Good
Flu Activity Not available.
METAR KBGR 230953Z 02005KT 10SM OVC060 17/14 A3014 RMK AO2 SLP204 T01670144

More Conditions Fewer Conditions

Pressure 30.14 in
Visibility 10.0 miles
Clouds Overcast 6000 ft
Dew Point 58 °F
Humidity 91%
Rainfall 0.00 in
Snow Depth Not available.
UV 0 out of 12
Pollen 6.90 out of 12
Ozone Good
Flu Activity Not available.
METAR KBGR 230953Z 02005KT 10SM OVC060 17/14 A3014 RMK AO2 SLP204 T01670144

More Conditions Fewer Conditions

10-Day Weather Forecast

Almanac

Astronomy

Aug. 23, 2014 Rise Set
Actual Time 5:47 AM EDT 7:29 PM EDT
Civil Twilight 5:16 AM EDT 8:00 PM EDT
Nautical Twilight 4:38 AM EDT 8:38 PM EDT
Astronomical Twilight 3:57 AM EDT 9:18 PM EDT
Moon 3:59 AM EDT 6:12 PM EDT
Length of Visible Light 14h 43m
Length of Day
13h 41m
Tomorrow will be 2m 54s shorter.
Waning Crescent, 4% of the Moon is Illuminated
Today
Waning Crescent
Aug 25
New
Sep 2
First Quarter
Sep 8
Full
Sep 15
Last Quarter

Today's Extremes

State Highs State Lows

Community

WunderPhotos

Upload Photos

1,746,396 photos uploaded!

WunderBlogs® & News

By Dr. Jeff Masters
Director of Meteorology, Weather Underground
By Kari Strenfel
Meteorologist, Weather Underground
By Christopher C. Burt
Weather Historian, Weather Underground
August 23, 2014
August 23, 2014
August 22, 2014

Nearby

Air Quality

  Air Quality AQ Index Pollutant
Yesterday Good
OZONE
Yesterday Good
PM2.5
Current Good
OZONE
Saturday Good
OZONE
Saturday Good
PM2.5
Sunday Good
OZONE
Sunday Good
PM2.5
Monday Good
OZONE
Monday Good
PM2.5
Tuesday Good
OZONE
Tuesday Good
PM2.5

Snow Depth

Station Depth Elevation
No new snow has been reported.

Earthquake Activity

City Distance Mag. Time & Date
No recent earthquake activity has been reported nearby.
Minimum magnitude displayed is 2.5.

Coastal Water Temperatures

Place Temperature
Portland, ME 61.0 °F

Nearby Weather Stations